Time;durP1;ratioP1;P1;durP2;ratioP2;P2;SDS_P1;SDS_P2;PMS_P1;PMS_P2;Temp;Humidity;BMP_temperature;BMP_pressure;BME280_temperature;BME280_humidity;BME280_pressure;Samples;Min_cycle;Max_cycle;Signal;HPM_P1;HPM_P2
2023/06/25 00:01:24;;;;;;;4.57;2.00;;;18.20;99.90;;;;;;5093641;28;20253;-43
2023/06/25 00:03:51;;;;;;;1.60;1.50;;;18.10;99.90;;;;;;5094078;28;20201;-41
2023/06/25 00:06:16;;;;;;;4.07;2.03;;;18.10;99.90;;;;;;5094107;28;20270;-42
2023/06/25 00:08:42;;;;;;;4.37;2.33;;;18.10;99.90;;;;;;5093105;28;20210;-40
2023/06/25 00:11:08;;;;;;;3.97;2.27;;;18.10;99.90;;;;;;5093427;28;20227;-42
2023/06/25 00:13:33;;;;;;;2.77;1.97;;;18.00;99.90;;;;;;5093413;28;20258;-42
2023/06/25 00:15:59;;;;;;;7.50;2.30;;;18.00;99.90;;;;;;5093919;28;20641;-40
2023/06/25 00:18:26;;;;;;;6.43;2.73;;;18.00;99.90;;;;;;5093665;28;20235;-39
2023/06/25 00:20:53;;;;;;;6.00;2.37;;;17.90;99.90;;;;;;5093608;28;20156;-40
2023/06/25 00:23:19;;;;;;;6.10;2.70;;;17.90;99.90;;;;;;5093553;28;20255;-42
2023/06/25 00:25:45;;;;;;;8.40;2.67;;;17.90;99.90;;;;;;5093453;28;20199;-40
2023/06/25 00:28:10;;;;;;;3.97;2.60;;;17.80;99.90;;;;;;5093366;28;20181;-41
2023/06/25 00:30:37;;;;;;;8.07;2.33;;;17.80;99.90;;;;;;5093392;28;20197;-41
2023/06/25 00:33:02;;;;;;;7.03;2.67;;;17.80;99.90;;;;;;5093618;28;20603;-39
2023/06/25 00:35:47;;;;;;;7.43;2.20;;;17.70;99.90;;;;;;5093384;28;20274;-40
2023/06/25 00:38:13;;;;;;;13.77;2.40;;;17.70;99.90;;;;;;5093604;28;20155;-41
2023/06/25 00:40:39;;;;;;;3.67;2.33;;;17.60;99.90;;;;;;5093455;28;20722;-42
2023/06/25 00:43:04;;;;;;;6.53;2.20;;;17.60;99.90;;;;;;5093208;28;20654;-40
2023/06/25 00:45:30;;;;;;;10.47;2.37;;;17.60;99.90;;;;;;5093130;28;20278;-42
2023/06/25 00:47:58;;;;;;;9.20;2.93;;;17.50;99.90;;;;;;5093446;28;20181;-42
2023/06/25 00:50:24;;;;;;;5.47;2.30;;;17.50;99.90;;;;;;5093218;28;20175;-41
2023/06/25 00:52:54;;;;;;;4.87;2.90;;;17.50;99.90;;;;;;5075400;28;20236;-41
2023/06/25 00:55:20;;;;;;;9.63;2.47;;;17.50;99.90;;;;;;5093302;28;20187;-39
2023/06/25 00:57:46;;;;;;;6.67;2.60;;;17.40;99.90;;;;;;5093058;28;20214;-41
2023/06/25 01:00:14;;;;;;;5.63;2.37;;;17.30;99.90;;;;;;5093159;28;20171;-39
2023/06/25 01:03:07;;;;;;;2.40;2.07;;;17.40;99.90;;;;;;5093649;28;20171;-40
2023/06/25 01:06:00;;;;;;;8.77;2.60;;;17.30;99.90;;;;;;5093351;28;20198;-40
2023/06/25 01:08:29;;;;;;;10.37;2.93;;;17.30;99.90;;;;;;5093331;28;20197;-42
2023/06/25 01:10:56;;;;;;;4.57;2.70;;;17.30;99.90;;;;;;5093341;28;20221;-41
2023/06/25 01:13:21;;;;;;;4.27;2.60;;;17.20;99.90;;;;;;5093298;28;20207;-42
2023/06/25 01:15:47;;;;;;;5.40;2.80;;;17.20;99.90;;;;;;5092878;28;20238;-41
2023/06/25 01:18:13;;;;;;;5.80;2.93;;;17.10;99.90;;;;;;5093256;28;20167;-41
2023/06/25 01:20:40;;;;;;;4.23;2.47;;;17.10;99.90;;;;;;5093634;28;20745;-40
2023/06/25 01:23:07;;;;;;;9.53;2.90;;;17.10;99.90;;;;;;5078308;28;20186;-39
2023/06/25 01:25:36;;;;;;;6.43;2.70;;;17.10;99.90;;;;;;5096478;28;20293;-42
2023/06/25 01:28:02;;;;;;;7.00;2.97;;;17.00;99.90;;;;;;5096560;28;20166;-41
2023/06/25 01:30:31;;;;;;;6.27;2.30;;;17.00;99.90;;;;;;5096593;28;20540;-42
2023/06/25 01:33:00;;;;;;;6.80;2.30;;;17.00;99.90;;;;;;5096408;28;20167;-41
2023/06/25 01:35:26;;;;;;;9.60;2.50;;;17.00;99.90;;;;;;5096278;28;20187;-41
2023/06/25 01:37:51;;;;;;;10.40;3.07;;;17.00;99.90;;;;;;5096732;28;20324;-40
2023/06/25 01:40:17;;;;;;;6.50;2.57;;;16.90;99.90;;;;;;5096697;28;20216;-42
2023/06/25 01:42:43;;;;;;;7.00;2.43;;;16.80;99.90;;;;;;5096528;28;20631;-41
2023/06/25 01:45:11;;;;;;;4.27;2.73;;;16.90;99.90;;;;;;5078002;28;20209;-40
2023/06/25 01:47:37;;;;;;;7.73;2.37;;;16.80;99.90;;;;;;5096240;28;20179;-42
2023/06/25 01:50:04;;;;;;;6.93;2.60;;;16.80;99.90;;;;;;5096361;28;20191;-42
2023/06/25 01:52:29;;;;;;;7.90;2.20;;;16.70;99.90;;;;;;5096102;28;20190;-40
2023/06/25 01:54:55;;;;;;;8.90;2.67;;;16.70;99.90;;;;;;5095942;28;20211;-41
2023/06/25 01:57:21;;;;;;;9.07;2.70;;;16.70;99.90;;;;;;5095892;28;20294;-40
2023/06/25 01:59:47;;;;;;;3.53;2.50;;;16.60;99.90;;;;;;5095979;28;20542;-41
2023/06/25 02:02:13;;;;;;;4.27;2.50;;;16.60;99.90;;;;;;5096308;28;20175;-40
2023/06/25 02:04:38;;;;;;;7.07;2.47;;;16.60;99.90;;;;;;5095835;28;20199;-41
2023/06/25 02:07:04;;;;;;;5.10;2.40;;;16.50;99.90;;;;;;5095824;28;20704;-42
2023/06/25 02:09:30;;;;;;;7.50;2.33;;;16.50;99.90;;;;;;5095770;28;20170;-39
2023/06/25 02:11:56;;;;;;;4.73;2.13;;;16.50;99.90;;;;;;5095560;28;20698;-41
2023/06/25 02:14:22;;;;;;;6.03;2.77;;;16.50;99.90;;;;;;5095552;28;20285;-42
2023/06/25 02:16:47;;;;;;;5.33;2.30;;;16.50;99.90;;;;;;5095576;28;20202;-40
2023/06/25 02:19:13;;;;;;;4.57;2.23;;;16.40;99.90;;;;;;5095620;28;20186;-41
2023/06/25 02:21:38;;;;;;;6.17;2.47;;;16.40;99.90;;;;;;5095712;28;20174;-43
2023/06/25 02:24:05;;;;;;;7.20;2.97;;;16.40;99.90;;;;;;5095677;28;20247;-41
2023/06/25 02:26:30;;;;;;;5.17;2.53;;;16.40;99.90;;;;;;5095787;28;20163;-41
2023/06/25 02:28:56;;;;;;;9.13;3.00;;;16.40;99.90;;;;;;5077288;28;20598;-40
2023/06/25 02:31:21;;;;;;;6.00;2.57;;;16.30;99.90;;;;;;5095194;28;20186;-40
2023/06/25 02:33:47;;;;;;;6.33;2.77;;;16.30;99.90;;;;;;5094404;28;20544;-42
2023/06/25 02:36:13;;;;;;;9.00;2.40;;;16.30;99.90;;;;;;5095117;28;20203;-40
2023/06/25 02:38:38;;;;;;;6.70;2.63;;;16.20;99.90;;;;;;5095436;28;20228;-40
2023/06/25 02:41:04;;;;;;;6.40;2.87;;;16.20;99.90;;;;;;5095366;28;20205;-42
2023/06/25 02:43:29;;;;;;;7.30;2.60;;;16.20;99.90;;;;;;5095201;28;20262;-43
2023/06/25 02:45:55;;;;;;;7.07;2.57;;;16.10;99.90;;;;;;5095005;28;20202;-41
2023/06/25 02:48:20;;;;;;;7.57;2.80;;;16.20;99.90;;;;;;5095188;28;20183;-43
2023/06/25 02:50:46;;;;;;;4.17;2.50;;;16.10;99.90;;;;;;5095078;28;20572;-40
2023/06/25 02:53:12;;;;;;;7.07;2.83;;;16.10;99.90;;;;;;5095304;28;20183;-42
2023/06/25 02:55:37;;;;;;;5.83;2.80;;;16.10;99.90;;;;;;5095202;28;20221;-43
2023/06/25 02:58:03;;;;;;;6.93;2.60;;;16.10;99.90;;;;;;5095484;28;20191;-42
2023/06/25 03:00:29;;;;;;;12.43;3.00;;;16.10;99.90;;;;;;5096103;28;20262;-40
2023/06/25 03:02:54;;;;;;;12.07;2.43;;;16.00;99.90;;;;;;5095381;28;20178;-43
2023/06/25 03:05:20;;;;;;;6.63;2.93;;;16.00;99.90;;;;;;5094709;28;20191;-40
2023/06/25 03:07:53;;;;;;;9.13;3.00;;;16.00;99.90;;;;;;5094609;28;20178;-42
2023/06/25 03:10:20;;;;;;;7.00;2.80;;;16.00;99.90;;;;;;5094595;28;20643;-41
2023/06/25 03:12:46;;;;;;;4.77;2.93;;;15.90;99.90;;;;;;5094764;28;20198;-41
2023/06/25 03:15:11;;;;;;;9.60;3.63;;;15.90;99.90;;;;;;5094656;28;20678;-40
2023/06/25 03:17:37;;;;;;;7.43;2.80;;;15.90;99.90;;;;;;5094230;28;20233;-42
2023/06/25 03:20:03;;;;;;;11.57;3.40;;;15.90;99.90;;;;;;5094910;28;20170;-40
2023/06/25 03:22:29;;;;;;;7.73;2.97;;;15.90;99.90;;;;;;5094616;28;20526;-40
2023/06/25 03:24:55;;;;;;;5.63;2.83;;;15.90;99.90;;;;;;5095222;28;20271;-41
2023/06/25 03:27:20;;;;;;;9.77;3.27;;;15.90;99.90;;;;;;5094771;28;20183;-43
2023/06/25 03:29:46;;;;;;;12.97;3.00;;;15.90;99.90;;;;;;5094144;28;20219;-42
2023/06/25 03:32:11;;;;;;;10.83;3.40;;;15.90;99.90;;;;;;5094117;28;20178;-42
2023/06/25 03:34:37;;;;;;;9.97;3.00;;;15.90;99.90;;;;;;5094522;28;20194;-40
2023/06/25 03:37:02;;;;;;;7.73;3.50;;;15.90;99.90;;;;;;5094016;28;20247;-41
2023/06/25 03:39:28;;;;;;;7.80;3.10;;;15.80;99.90;;;;;;5094279;28;20175;-39
2023/06/25 03:41:54;;;;;;;12.17;3.20;;;15.80;99.90;;;;;;5094099;28;20518;-41
2023/06/25 03:44:19;;;;;;;13.03;3.47;;;15.90;99.90;;;;;;5093973;28;20260;-41
2023/06/25 03:46:45;;;;;;;7.53;3.60;;;15.80;99.90;;;;;;5094023;28;20193;-39
2023/06/25 03:49:10;;;;;;;9.93;3.60;;;15.90;99.90;;;;;;5075776;28;20174;-42
2023/06/25 03:51:36;;;;;;;12.73;3.47;;;15.90;99.90;;;;;;5094156;28;20202;-40
2023/06/25 03:54:01;;;;;;;6.57;3.30;;;15.90;99.90;;;;;;5093823;28;20203;-41
2023/06/25 03:56:27;;;;;;;6.80;3.27;;;15.90;99.90;;;;;;5093856;28;20256;-41
2023/06/25 03:58:52;;;;;;;5.77;3.70;;;15.90;99.90;;;;;;5094226;28;20205;-42
2023/06/25 04:01:18;;;;;;;11.17;3.60;;;15.90;99.90;;;;;;5093797;28;20171;-40
2023/06/25 04:03:43;;;;;;;6.10;3.70;;;15.90;99.90;;;;;;5093765;28;20175;-40
2023/06/25 04:06:09;;;;;;;9.47;3.97;;;15.90;99.90;;;;;;5075553;28;20174;-41
2023/06/25 04:08:34;;;;;;;11.33;3.83;;;16.00;99.90;;;;;;5094102;28;20186;-42
2023/06/25 04:11:00;;;;;;;10.17;4.27;;;16.00;99.90;;;;;;5093666;28;20183;-40
2023/06/25 04:13:26;;;;;;;8.83;3.57;;;16.00;99.90;;;;;;5093787;28;20239;-42
2023/06/25 04:15:51;;;;;;;9.27;3.90;;;16.00;99.90;;;;;;5075411;28;20214;-39
2023/06/25 04:18:17;;;;;;;8.87;3.33;;;16.10;99.90;;;;;;5093708;28;20255;-41
2023/06/25 04:20:42;;;;;;;12.67;3.57;;;16.10;99.90;;;;;;5093583;28;20175;-42
2023/06/25 04:23:08;;;;;;;9.40;3.57;;;16.10;99.90;;;;;;5093847;28;20651;-43
2023/06/25 04:25:33;;;;;;;7.90;3.80;;;16.20;99.90;;;;;;5093563;28;20197;-42
2023/06/25 04:27:59;;;;;;;8.27;3.60;;;16.20;99.90;;;;;;5076269;28;20174;-42
2023/06/25 04:30:25;;;;;;;7.97;3.70;;;16.30;99.90;;;;;;5094049;28;20647;-40
2023/06/25 04:32:50;;;;;;;19.03;3.70;;;16.30;99.90;;;;;;5093682;28;20182;-40
2023/06/25 04:35:17;;;;;;;10.63;3.77;;;16.40;99.90;;;;;;5093341;28;20545;-40
2023/06/25 04:37:42;;;;;;;8.47;4.47;;;16.40;99.90;;;;;;5093332;28;20203;-41
2023/06/25 04:40:08;;;;;;;13.70;4.30;;;16.50;99.90;;;;;;5093269;28;20650;-39
2023/06/25 04:42:34;;;;;;;10.53;3.90;;;16.50;99.90;;;;;;5093540;28;20183;-43
2023/06/25 04:44:59;;;;;;;11.27;3.70;;;16.60;99.90;;;;;;5093851;28;20279;-41
2023/06/25 04:47:25;;;;;;;8.47;3.60;;;16.60;99.90;;;;;;5093478;28;20632;-43
2023/06/25 04:49:52;;;;;;;6.40;3.70;;;16.70;99.90;;;;;;5093397;28;20297;-40
2023/06/25 04:52:20;;;;;;;8.50;4.10;;;16.70;99.90;;;;;;5075180;28;20707;-42
2023/06/25 04:54:46;;;;;;;8.33;3.10;;;16.80;99.90;;;;;;5093179;28;20679;-41
2023/06/25 04:57:12;;;;;;;13.63;4.20;;;16.80;99.90;;;;;;5096365;28;20211;-42
2023/06/25 04:59:37;;;;;;;11.63;3.30;;;16.90;99.90;;;;;;5097340;28;20175;-41
2023/06/25 05:02:05;;;;;;;11.93;4.53;;;17.00;99.90;;;;;;5097370;28;20213;-40
2023/06/25 05:04:30;;;;;;;7.47;3.60;;;17.00;99.90;;;;;;5097028;28;20195;-42
2023/06/25 05:06:56;;;;;;;5.27;3.50;;;17.10;99.90;;;;;;5097228;28;20704;-41
2023/06/25 05:09:21;;;;;;;8.17;3.67;;;17.10;99.90;;;;;;5096853;28;20265;-41
2023/06/25 05:11:47;;;;;;;13.17;3.93;;;17.20;99.90;;;;;;5097183;28;20186;-42
2023/06/25 05:14:13;;;;;;;12.27;4.17;;;17.20;99.90;;;;;;5096850;28;20277;-41
2023/06/25 05:16:38;;;;;;;14.60;4.20;;;17.20;99.90;;;;;;5096718;28;20202;-42
2023/06/25 05:19:04;;;;;;;7.77;3.53;;;17.30;99.90;;;;;;5096771;28;20179;-42
2023/06/25 05:21:29;;;;;;;7.87;4.00;;;17.40;99.90;;;;;;5078529;28;20179;-41
2023/06/25 05:24:00;;;;;;;10.40;4.00;;;17.50;99.90;;;;;;5096561;28;20250;-41
2023/06/25 05:26:27;;;;;;;6.90;3.57;;;17.60;99.90;;;;;;5096860;28;20304;-41
2023/06/25 05:28:53;;;;;;;15.20;4.50;;;17.60;99.90;;;;;;5078304;28;20273;-42
2023/06/25 05:31:18;;;;;;;14.63;4.00;;;17.70;99.90;;;;;;5096759;28;20276;-43
2023/06/25 05:33:44;;;;;;;9.33;4.03;;;17.80;99.90;;;;;;5096828;28;20285;-41
2023/06/25 05:36:12;;;;;;;11.97;4.70;;;17.80;99.90;;;;;;5096307;28;20581;-42
2023/06/25 05:38:38;;;;;;;7.37;3.70;;;18.00;99.90;;;;;;5096793;28;20646;-42
2023/06/25 05:41:03;;;;;;;9.80;4.20;;;18.00;99.90;;;;;;5096629;28;20206;-43
2023/06/25 05:43:29;;;;;;;10.83;3.90;;;18.10;99.90;;;;;;5096454;28;20567;-44
2023/06/25 05:45:54;;;;;;;6.93;4.10;;;18.20;99.90;;;;;;5096627;28;20207;-47
2023/06/25 05:48:20;;;;;;;7.57;3.50;;;18.40;99.90;;;;;;5096595;28;20186;-45
2023/06/25 05:50:45;;;;;;;6.93;3.70;;;18.40;99.90;;;;;;5096390;28;20635;-44
2023/06/25 05:53:11;;;;;;;16.50;3.70;;;18.60;99.90;;;;;;5096509;28;20178;-45
2023/06/25 05:55:37;;;;;;;7.47;3.73;;;18.70;99.90;;;;;;5095873;28;20199;-45
2023/06/25 05:58:02;;;;;;;16.30;3.70;;;18.80;99.90;;;;;;5095877;28;20190;-45
2023/06/25 06:00:28;;;;;;;5.47;3.10;;;19.00;99.90;;;;;;5096001;28;20167;-46
2023/06/25 06:02:53;;;;;;;11.33;3.73;;;19.10;99.90;;;;;;5096125;28;20178;-45
2023/06/25 06:05:19;;;;;;;6.20;3.37;;;19.30;99.90;;;;;;5096295;28;20190;-46
2023/06/25 06:07:44;;;;;;;9.67;4.00;;;19.50;99.90;;;;;;5094408;28;20187;-47
2023/06/25 06:10:14;;;;;;;8.97;3.80;;;19.70;99.90;;;;;;5095637;28;20170;-46
2023/06/25 06:12:39;;;;;;;8.73;3.47;;;19.90;99.90;;;;;;5095701;28;20175;-45
2023/06/25 06:15:05;;;;;;;8.87;4.27;;;20.10;99.90;;;;;;5095820;28;20202;-45
2023/06/25 06:17:31;;;;;;;7.10;3.40;;;20.30;99.90;;;;;;5096021;28;20183;-46
2023/06/25 06:19:56;;;;;;;6.50;3.53;;;20.50;99.90;;;;;;5095493;28;20198;-46
2023/06/25 06:22:22;;;;;;;7.30;3.43;;;20.80;99.90;;;;;;5095431;28;20175;-45
2023/06/25 06:24:47;;;;;;;7.97;3.63;;;21.10;99.90;;;;;;5095234;28;20202;-44
2023/06/25 06:27:13;;;;;;;6.70;4.00;;;21.40;99.90;;;;;;5095335;28;20179;-44
2023/06/25 06:29:39;;;;;;;8.27;3.87;;;21.50;99.90;;;;;;5095552;28;20217;-45
2023/06/25 06:32:05;;;;;;;6.73;4.10;;;21.70;99.90;;;;;;5077175;28;20277;-46
2023/06/25 06:34:30;;;;;;;5.47;3.70;;;21.90;99.90;;;;;;5095180;28;20198;-46
2023/06/25 06:36:56;;;;;;;5.90;3.60;;;22.20;99.90;;;;;;5095380;28;20199;-45
2023/06/25 06:39:22;;;;;;;6.77;3.40;;;22.50;99.90;;;;;;5095171;28;20228;-46
2023/06/25 06:41:48;;;;;;;5.93;3.83;;;22.70;99.90;;;;;;5095067;28;20170;-47
2023/06/25 06:44:15;;;;;;;5.17;3.60;;;23.10;99.90;;;;;;5095007;28;20191;-45
2023/06/25 06:46:41;;;;;;;8.30;3.70;;;23.10;99.90;;;;;;5095781;28;20278;-44
2023/06/25 06:49:07;;;;;;;6.20;3.80;;;23.30;99.90;;;;;;5094945;28;20287;-46
2023/06/25 06:51:33;;;;;;;6.20;3.77;;;23.50;99.90;;;;;;5076750;28;20270;-45
2023/06/25 06:53:59;;;;;;;7.30;3.80;;;23.80;99.90;;;;;;5095243;28;20276;-45
2023/06/25 06:56:25;;;;;;;6.37;3.77;;;24.00;99.90;;;;;;5094812;28;20206;-46
2023/06/25 06:58:51;;;;;;;4.37;3.80;;;24.10;99.90;;;;;;5095391;28;20167;-46
2023/06/25 07:01:16;;;;;;;4.23;3.73;;;24.30;99.90;;;;;;5094715;28;20182;-45
2023/06/25 07:03:42;;;;;;;6.03;3.40;;;24.40;99.90;;;;;;5094853;28;20179;-46
2023/06/25 07:06:08;;;;;;;5.47;3.70;;;24.60;99.90;;;;;;5094628;28;20199;-45
2023/06/25 07:08:33;;;;;;;6.50;3.40;;;24.80;99.90;;;;;;5094793;28;20179;-46
2023/06/25 07:10:59;;;;;;;7.27;3.50;;;25.00;99.90;;;;;;5094823;28;20178;-44
2023/06/25 07:13:25;;;;;;;4.87;3.87;;;25.20;99.90;;;;;;5094993;28;20175;-47
2023/06/25 07:15:50;;;;;;;4.73;3.70;;;25.40;99.90;;;;;;5094807;28;20206;-47
2023/06/25 07:18:16;;;;;;;6.23;3.80;;;25.50;99.90;;;;;;5094029;28;20216;-47
2023/06/25 07:20:41;;;;;;;7.00;4.10;;;25.60;99.90;;;;;;5094289;28;20175;-47
2023/06/25 07:23:07;;;;;;;4.23;3.57;;;25.60;99.90;;;;;;5094262;28;20250;-46
2023/06/25 07:25:33;;;;;;;7.93;3.40;;;25.80;99.90;;;;;;5094539;28;20243;-47
2023/06/25 07:27:59;;;;;;;5.07;3.60;;;25.90;99.90;;;;;;5094521;28;20171;-47
2023/06/25 07:30:24;;;;;;;4.60;3.23;;;25.90;99.90;;;;;;5094251;28;20191;-42
2023/06/25 07:32:50;;;;;;;5.17;3.53;;;26.10;99.90;;;;;;5094114;28;20297;-42
2023/06/25 07:35:15;;;;;;;5.47;3.77;;;26.30;99.90;;;;;;5094773;28;20199;-41
2023/06/25 07:37:41;;;;;;;4.93;3.63;;;26.50;99.90;;;;;;5094015;28;20199;-41
2023/06/25 07:40:07;;;;;;;5.57;3.43;;;26.50;99.90;;;;;;5093975;28;20659;-40
2023/06/25 07:42:32;;;;;;;6.47;3.50;;;26.70;99.90;;;;;;5094329;28;20174;-43
2023/06/25 07:44:58;;;;;;;4.97;3.53;;;26.70;99.90;;;;;;5075648;28;20741;-42
2023/06/25 07:47:24;;;;;;;6.57;3.80;;;26.80;99.90;;;;;;5094098;28;20550;-43
2023/06/25 07:49:50;;;;;;;3.90;3.47;;;26.90;99.90;;;;;;5094114;28;20202;-44
2023/06/25 07:52:16;;;;;;;7.83;3.70;;;27.00;99.90;;;;;;5093769;28;20639;-43
2023/06/25 07:54:41;;;;;;;5.10;3.80;;;27.00;99.90;;;;;;5093864;28;20206;-43
2023/06/25 07:57:07;;;;;;;4.47;3.73;;;27.10;99.90;;;;;;5093743;28;20241;-41
2023/06/25 07:59:32;;;;;;;9.37;4.40;;;27.30;99.90;;;;;;5093719;28;20197;-42
2023/06/25 08:01:58;;;;;;;4.90;3.63;;;27.50;99.90;;;;;;5075935;28;20175;-43
2023/06/25 08:04:24;;;;;;;4.63;3.57;;;27.70;99.90;;;;;;5094125;28;20199;-43
2023/06/25 08:06:49;;;;;;;6.33;3.70;;;27.70;99.90;;;;;;5093919;28;20174;-44
2023/06/25 08:09:15;;;;;;;4.10;3.57;;;27.90;99.90;;;;;;5093688;28;20179;-44
2023/06/25 08:11:40;;;;;;;4.93;3.60;;;27.90;99.90;;;;;;5093961;28;20183;-42
2023/06/25 08:14:08;;;;;;;8.30;3.60;;;28.10;99.90;;;;;;5093562;28;20256;-42
2023/06/25 08:16:34;;;;;;;4.90;3.80;;;28.20;99.90;;;;;;5093781;28;20205;-42
2023/06/25 08:19:00;;;;;;;4.00;3.53;;;28.40;99.90;;;;;;5093533;28;20156;-43
2023/06/25 08:21:25;;;;;;;6.07;3.53;;;28.60;99.90;;;;;;5093461;28;20170;-47
2023/06/25 08:23:51;;;;;;;5.77;3.67;;;28.60;99.90;;;;;;5093300;28;20204;-49
2023/06/25 08:26:17;;;;;;;6.60;3.83;;;28.60;99.90;;;;;;5093373;28;20194;-50
2023/06/25 08:28:43;;;;;;;3.95;3.55;;;28.60;99.90;;;;;;5093334;28;20201;-49
2023/06/25 08:31:10;;;;;;;5.27;3.53;;;28.70;99.90;;;;;;5095403;28;20643;-49
2023/06/25 08:33:36;;;;;;;7.45;3.53;;;28.70;99.90;;;;;;5097757;28;20182;-48
2023/06/25 08:36:02;;;;;;;5.00;4.00;;;28.90;99.90;;;;;;5097666;28;20214;-49
2023/06/25 08:38:27;;;;;;;4.57;3.33;;;28.90;99.90;;;;;;5097483;28;20650;-49
2023/06/25 08:40:54;;;;;;;5.10;3.65;;;28.90;99.90;;;;;;5097699;28;20260;-49
2023/06/25 08:43:20;;;;;;;5.13;3.90;;;29.00;99.90;;;;;;5097659;28;20183;-49
2023/06/25 08:45:46;;;;;;;6.65;3.92;;;29.10;99.90;;;;;;5097568;28;20693;-49
2023/06/25 08:48:16;;;;;;;8.27;4.15;;;29.30;99.90;;;;;;5097641;28;20182;-50
2023/06/25 08:50:43;;;;;;;4.18;3.78;;;29.40;99.90;;;;;;5097615;28;20275;-48
2023/06/25 08:53:09;;;;;;;4.00;3.30;;;29.50;99.90;;;;;;5097374;28;20175;-47
2023/06/25 08:55:36;;;;;;;7.78;3.83;;;29.70;99.90;;;;;;5097622;28;20696;-49
2023/06/25 08:58:02;;;;;;;4.00;3.60;;;29.90;99.90;;;;;;5097033;28;20211;-49
2023/06/25 09:00:28;;;;;;;3.85;3.40;;;30.00;99.90;;;;;;5097502;28;20195;-49
2023/06/25 09:02:54;;;;;;;5.07;3.50;;;30.10;99.90;;;;;;5097424;28;20174;-48
2023/06/25 09:05:25;;;;;;;5.72;3.80;;;30.20;99.90;;;;;;5097288;28;20217;-50
2023/06/25 09:07:51;;;;;;;9.15;3.58;;;30.30;99.90;;;;;;5097176;28;20186;-49
2023/06/25 09:10:18;;;;;;;4.32;3.80;;;30.40;99.90;;;;;;5096880;28;20179;-49
2023/06/25 09:12:48;;;;;;;7.68;3.97;;;30.50;99.90;;;;;;5097084;28;20182;-49
2023/06/25 09:15:22;;;;;;;4.03;3.55;;;30.60;99.90;;;;;;5096709;28;20190;-49
2023/06/25 09:17:48;;;;;;;4.28;3.88;;;30.70;99.90;;;;;;5096949;28;20232;-50
2023/06/25 09:20:14;;;;;;;5.45;3.30;;;30.80;99.90;;;;;;5096910;28;20174;-48
2023/06/25 09:22:57;;;;;;;4.55;3.55;;;30.90;99.90;;;;;;5096989;28;20609;-50
2023/06/25 09:25:31;;;;;;;4.93;3.72;;;31.00;99.90;;;;;;5096780;28;20716;-49
2023/06/25 09:27:59;;;;;;;5.72;4.30;;;31.20;99.90;;;;;;5078391;28;20183;-49
2023/06/25 09:30:25;;;;;;;4.15;3.75;;;31.30;99.90;;;;;;5096732;28;20190;-49
2023/06/25 09:32:54;;;;;;;8.73;4.00;;;31.20;99.90;;;;;;5096621;28;20714;-49
2023/06/25 09:35:21;;;;;;;6.07;3.75;;;31.20;99.90;;;;;;5096218;28;20199;-50
2023/06/25 09:37:49;;;;;;;6.95;3.85;;;31.40;99.90;;;;;;5096139;28;20694;-49
2023/06/25 09:40:14;;;;;;;4.53;3.78;;;31.50;99.90;;;;;;5096202;28;20202;-50
2023/06/25 09:42:43;;;;;;;5.88;3.50;;;31.50;99.90;;;;;;5096113;28;20175;-50
2023/06/25 09:45:14;;;;;;;5.57;3.72;;;31.30;99.90;;;;;;5077958;28;20675;-49
2023/06/25 09:47:43;;;;;;;4.47;3.80;;;31.40;99.90;;;;;;5096362;28;20163;-51
2023/06/25 09:50:16;;;;;;;5.85;3.85;;;31.50;99.90;;;;;;5096255;28;20179;-51
2023/06/25 09:52:47;;;;;;;4.45;3.80;;;31.60;99.90;;;;;;5096570;28;20155;-50
2023/06/25 09:55:14;;;;;;;7.30;3.90;;;31.70;99.90;;;;;;5095837;28;20199;-51
2023/06/25 09:57:41;;;;;;;4.07;3.67;;;31.80;99.90;;;;;;5095758;28;20297;-50
2023/06/25 10:00:09;;;;;;;4.00;3.65;;;32.00;99.90;;;;;;5096158;28;20181;-51
2023/06/25 10:02:34;;;;;;;3.97;3.55;;;32.10;99.90;;;;;;5096135;28;20175;-51
2023/06/25 10:05:00;;;;;;;4.40;3.47;;;32.10;99.90;;;;;;5077590;28;20210;-52
2023/06/25 10:07:26;;;;;;;6.07;3.85;;;32.20;99.90;;;;;;5096115;28;20182;-51
2023/06/25 10:09:55;;;;;;;3.97;3.67;;;32.20;99.90;;;;;;5095970;28;20179;-52
2023/06/25 10:12:20;;;;;;;4.38;3.97;;;32.40;99.90;;;;;;5095823;28;20242;-52
2023/06/25 10:14:49;;;;;;;4.88;4.00;;;32.50;99.90;;;;;;5095721;28;20237;-52
2023/06/25 10:17:15;;;;;;;5.15;3.72;;;32.60;99.90;;;;;;5095578;28;20205;-51
2023/06/25 10:19:56;;;;;;;4.38;3.83;;;32.60;99.90;;;;;;5095787;28;20175;-51
2023/06/25 10:22:26;;;;;;;6.63;4.13;;;32.80;99.90;;;;;;5095710;28;20212;-51
2023/06/25 10:24:54;;;;;;;3.70;3.40;;;32.80;99.90;;;;;;5095757;28;20710;-51
2023/06/25 10:27:26;;;;;;;5.55;4.28;;;32.80;99.90;;;;;;5095590;28;20517;-51
2023/06/25 10:29:52;;;;;;;5.43;3.63;;;32.80;99.90;;;;;;5095253;28;20182;-52
2023/06/25 10:32:22;;;;;;;3.72;3.42;;;32.40;99.90;;;;;;5095212;28;20175;-51
2023/06/25 10:35:01;;;;;;;4.07;3.67;;;32.30;99.90;;;;;;5095007;28;20190;-51
2023/06/25 10:37:31;;;;;;;4.68;4.15;;;32.50;99.90;;;;;;5095041;28;20198;-51
2023/06/25 10:40:05;;;;;;;6.88;4.00;;;32.30;99.90;;;;;;5095038;28;20174;-52
2023/06/25 10:42:31;;;;;;;5.13;3.78;;;32.00;99.90;;;;;;5094935;28;20209;-52
2023/06/25 10:44:59;;;;;;;5.68;3.88;;;32.10;99.90;;;;;;5094927;28;20190;-51
2023/06/25 10:47:24;;;;;;;4.30;3.83;;;32.30;99.90;;;;;;5095250;28;20210;-51
2023/06/25 10:49:50;;;;;;;4.70;3.50;;;32.50;99.90;;;;;;5094872;28;20171;-51
2023/06/25 10:52:17;;;;;;;6.43;3.72;;;32.60;99.90;;;;;;5095168;28;20646;-52
2023/06/25 10:54:43;;;;;;;8.32;3.50;;;32.70;99.90;;;;;;5094335;28;20565;-52
2023/06/25 10:57:14;;;;;;;4.10;3.70;;;32.70;99.90;;;;;;5095194;28;20214;-51
2023/06/25 10:59:40;;;;;;;3.90;3.50;;;32.80;99.90;;;;;;5094805;28;20178;-52
2023/06/25 11:02:22;;;;;;;4.78;3.53;;;33.00;99.90;;;;;;5094995;28;20545;-52
2023/06/25 11:04:51;;;;;;;4.35;3.63;;;32.90;99.90;;;;;;5094560;28;20221;-51
2023/06/25 11:07:22;;;;;;;4.35;3.58;;;32.80;99.90;;;;;;5094568;28;20178;-51
2023/06/25 11:09:58;;;;;;;6.45;3.67;;;32.90;99.90;;;;;;5094432;28;20163;-52
2023/06/25 11:12:25;;;;;;;5.35;3.22;;;33.20;99.90;;;;;;5094396;28;20190;-52
2023/06/25 11:14:50;;;;;;;3.88;3.47;;;33.30;99.90;;;;;;5094473;28;20202;-51
2023/06/25 11:17:17;;;;;;;5.47;3.17;;;33.50;99.90;;;;;;5094238;28;20666;-52
2023/06/25 11:19:43;;;;;;;4.25;3.50;;;33.70;99.90;;;;;;5094537;28;20185;-52
2023/06/25 11:22:09;;;;;;;5.05;3.53;;;33.80;99.90;;;;;;5094286;28;20250;-51
2023/06/25 11:24:36;;;;;;;5.28;3.75;;;33.90;99.90;;;;;;5094175;28;20198;-50
2023/06/25 11:27:02;;;;;;;3.80;3.50;;;34.10;99.90;;;;;;5094441;28;20182;-52
2023/06/25 11:29:36;;;;;;;4.93;3.85;;;34.20;99.40;;;;;;5094422;28;20183;-51
2023/06/25 11:32:02;;;;;;;3.65;3.35;;;34.10;99.90;;;;;;5094045;28;20174;-51
2023/06/25 11:34:28;;;;;;;4.90;3.13;;;34.00;96.80;;;;;;5094305;28;20198;-51
2023/06/25 11:36:53;;;;;;;3.38;3.08;;;33.80;99.70;;;;;;5093983;28;20757;-51
2023/06/25 11:39:19;;;;;;;3.70;3.40;;;33.90;99.90;;;;;;5075863;28;20174;-52
2023/06/25 11:41:46;;;;;;;4.20;3.25;;;33.90;99.90;;;;;;5094268;28;20163;-52
2023/06/25 11:44:19;;;;;;;7.40;3.28;;;34.00;99.90;;;;;;5093907;28;20544;-51
2023/06/25 11:46:52;;;;;;;3.90;3.50;;;34.20;99.90;;;;;;5093916;28;20195;-51
2023/06/25 11:49:18;;;;;;;3.50;3.20;;;34.30;99.90;;;;;;5093945;28;20167;-51
2023/06/25 11:51:45;;;;;;;5.18;3.53;;;34.50;99.90;;;;;;5094082;28;20258;-50
2023/06/25 11:54:11;;;;;;;4.63;3.70;;;34.60;99.90;;;;;;5093665;28;20202;-51
2023/06/25 11:56:37;;;;;;;6.63;3.15;;;34.60;99.90;;;;;;5093580;28;20564;-50
2023/06/25 11:59:03;;;;;;;3.88;3.58;;;34.70;99.90;;;;;;5093675;28;20171;-50
2023/06/25 12:01:29;;;;;;;6.75;3.45;;;34.70;99.90;;;;;;5093956;28;20183;-51
2023/06/25 12:03:55;;;;;;;3.40;3.13;;;34.80;99.80;;;;;;5093748;28;20641;-51
2023/06/25 12:06:22;;;;;;;4.80;3.33;;;34.80;98.30;;;;;;5093497;28;20205;-52
2023/06/25 12:08:47;;;;;;;3.75;3.15;;;34.70;97.40;;;;;;5093868;28;20179;-51
2023/06/25 12:11:13;;;;;;;3.55;3.10;;;34.60;96.50;;;;;;5093474;28;20277;-50
2023/06/25 12:13:38;;;;;;;3.65;3.35;;;34.60;99.40;;;;;;5093679;28;20191;-51
2023/06/25 12:16:04;;;;;;;3.50;3.20;;;34.60;99.90;;;;;;5093794;28;20665;-50
2023/06/25 12:18:30;;;;;;;3.70;3.40;;;34.80;99.60;;;;;;5093490;28;20254;-50
2023/06/25 12:20:55;;;;;;;4.55;3.60;;;34.80;98.30;;;;;;5093680;28;20202;-49
2023/06/25 12:23:21;;;;;;;4.03;3.72;;;34.80;99.30;;;;;;5093365;28;20666;-51
2023/06/25 12:25:47;;;;;;;4.38;3.40;;;34.80;93.80;;;;;;5093352;28;20194;-51
2023/06/25 12:28:12;;;;;;;3.72;3.40;;;34.60;96.90;;;;;;5093406;28;20178;-51
2023/06/25 12:30:38;;;;;;;3.55;3.22;;;34.50;94.90;;;;;;5093475;28;20175;-51
2023/06/25 12:33:03;;;;;;;4.15;3.50;;;34.40;97.90;;;;;;5093380;28;20174;-51
2023/06/25 12:35:29;;;;;;;3.47;3.17;;;34.40;97.20;;;;;;5093639;28;20203;-51
2023/06/25 12:37:54;;;;;;;4.13;3.42;;;34.60;99.00;;;;;;5093520;28;20290;-51
2023/06/25 12:40:20;;;;;;;5.55;3.67;;;34.70;96.60;;;;;;5093351;28;20630;-51
2023/06/25 12:42:46;;;;;;;3.67;3.38;;;34.60;96.60;;;;;;5093491;28;20662;-51